createdAt,value
2023-03-25T00:00:40.591Z,22.1
2023-03-25T00:06:33.420Z,21.8
2023-03-25T00:11:54.184Z,22.3
2023-03-25T00:17:30.591Z,24.1
2023-03-25T00:22:51.367Z,23.4
2023-03-25T00:28:27.369Z,22.9
2023-03-25T00:34:04.196Z,22.9
2023-03-25T00:39:56.278Z,22.7
2023-03-25T00:45:32.655Z,22.5
2023-03-25T00:51:10.422Z,22.3
2023-03-25T00:57:11.567Z,21.9
2023-03-25T01:03:03.856Z,21.7
2023-03-25T01:08:41.102Z,23.5
2023-03-25T01:14:32.860Z,25.6
2023-03-25T01:19:54.481Z,23
2023-03-25T01:25:46.567Z,23
2023-03-25T01:31:38.751Z,22.8
2023-03-25T01:36:59.800Z,22.6
2023-03-25T01:43:02.081Z,22.3
2023-03-25T01:48:07.826Z,22.1
2023-03-25T01:53:59.000Z,21.8
2023-03-25T01:59:35.155Z,22.7
2023-03-25T02:05:12.114Z,24.8
2023-03-25T02:11:03.575Z,23.3
2023-03-25T02:16:40.113Z,23.1
2023-03-25T02:22:32.157Z,23.5
2023-03-25T02:28:23.125Z,23.1
2023-03-25T02:33:59.516Z,23
2023-03-25T02:39:35.698Z,22.8
2023-03-25T02:45:12.036Z,22.4
2023-03-25T02:51:04.001Z,22.5
2023-03-25T02:56:54.961Z,24.6
2023-03-25T03:02:46.856Z,23.4
2023-03-25T03:08:23.294Z,23.2
2023-03-25T03:13:58.796Z,23.6
2023-03-25T03:19:35.380Z,23.1
2023-03-25T03:25:27.435Z,23.1
2023-03-25T03:31:47.759Z,22.8
2023-03-25T03:37:57.079Z,22.4
2023-03-25T03:43:33.622Z,22.8
2023-03-25T03:49:25.177Z,24.8
2023-03-25T03:55:01.287Z,23.3
2023-03-25T04:00:53.549Z,23.2
2023-03-25T04:06:30.063Z,23.5
2023-03-25T04:12:21.104Z,23.1
2023-03-25T04:17:59.943Z,23
2023-03-25T04:23:36.349Z,22.8
2023-03-25T04:29:12.291Z,22.4
2023-03-25T04:35:04.268Z,22.3
2023-03-25T04:40:55.838Z,21.9
2023-03-25T04:46:16.605Z,22.9
2023-03-25T04:52:08.717Z,24.9
2023-03-25T04:58:00.581Z,23.3
2023-03-25T05:03:52.244Z,23.1
2023-03-25T05:09:44.623Z,23.5
2023-03-25T05:15:35.214Z,23.3
2023-03-25T05:21:11.981Z,22.9
2023-03-25T05:27:03.531Z,22.8
2023-03-25T05:32:56.180Z,22.3
2023-03-25T05:38:47.945Z,21.9
2023-03-25T05:44:25.440Z,23.4
2023-03-25T05:50:17.106Z,25.6
2023-03-25T05:56:12.924Z,23
2023-03-25T06:02:21.501Z,22.9
2023-03-25T06:08:12.071Z,22.8
2023-03-25T06:14:02.936Z,22.5
2023-03-25T06:19:55.192Z,22.2
2023-03-25T06:25:46.719Z,21.9
2023-03-25T06:31:37.658Z,21.6
2023-03-25T06:37:50.910Z,24
2023-03-25T06:43:26.771Z,23.4
2023-03-25T06:49:03.092Z,22.9
2023-03-25T06:54:54.643Z,22.8
2023-03-25T07:00:46.461Z,22.6
2023-03-25T07:06:37.882Z,22.3
2023-03-25T07:12:31.536Z,22.1
2023-03-25T07:18:26.933Z,21.8
2023-03-25T07:24:21.085Z,22.9
2023-03-25T07:30:13.712Z,25.5
2023-03-25T07:36:06.595Z,22.9
2023-03-25T07:41:58.823Z,22.8
2023-03-25T07:47:57.944Z,22.7
2023-03-25T07:53:49.276Z,22.4
2023-03-25T07:59:44.483Z,22.1
2023-03-25T08:05:38.976Z,21.8
2023-03-25T08:11:32.108Z,22.2
2023-03-25T08:17:25.401Z,24.8
2023-03-25T08:23:19.069Z,22.8
2023-03-25T08:28:56.216Z,22.8
2023-03-25T08:34:48.459Z,22.7
2023-03-25T08:40:40.578Z,22.5
2023-03-25T08:46:16.141Z,24.1
2023-03-25T08:51:51.448Z,23.4
2023-03-25T08:57:12.650Z,22.8
2023-03-25T09:03:07.664Z,22.8
2023-03-25T09:09:07.775Z,22.7
2023-03-25T09:15:11.569Z,23.4
2023-03-25T09:21:05.017Z,24.9
2023-03-25T09:26:57.644Z,22.8
2023-03-25T09:32:50.287Z,22.8
2023-03-25T09:38:27.190Z,22.7
2023-03-25T09:44:18.617Z,22.9
2023-03-25T09:50:18.290Z,25.7
2023-03-25T09:56:10.286Z,22.8
2023-03-25T10:02:02.749Z,22.9
2023-03-25T10:07:24.783Z,22.8
2023-03-25T10:13:00.976Z,22.6
2023-03-25T10:18:55.498Z,25.2
2023-03-25T10:24:47.458Z,22.9
2023-03-25T10:30:38.911Z,22.9
2023-03-25T10:36:32.477Z,22.8
2023-03-25T10:42:24.645Z,22.6
2023-03-25T10:48:16.440Z,22.4
2023-03-25T10:54:07.974Z,22.1
2023-03-25T10:59:59.888Z,21.8
2023-03-25T11:05:52.847Z,21.5
2023-03-25T11:11:57.617Z,21.3
2023-03-25T11:17:47.676Z,21
2023-03-25T11:23:42.574Z,20.8
2023-03-25T11:29:34.527Z,20.5
2023-03-25T11:35:26.565Z,20.3
2023-03-25T11:41:19.069Z,20
2023-03-25T11:46:55.231Z,19.8
2023-03-25T11:52:16.179Z,19.6
2023-03-25T11:58:08.131Z,19.5
2023-03-25T12:03:29.413Z,19.3
2023-03-25T12:09:06.548Z,19.1
2023-03-25T12:15:00.831Z,18.9
2023-03-25T12:20:53.032Z,18.8
2023-03-25T12:32:22.193Z,18.6
2023-03-25T12:38:14.206Z,18.4
2023-03-25T12:44:22.906Z,18.3
2023-03-25T12:49:59.660Z,18.2
2023-03-25T12:55:23.553Z,18.1
2023-03-25T13:01:15.780Z,18
2023-03-25T13:07:09.182Z,17.9
2023-03-25T13:13:00.780Z,17.8
2023-03-25T13:18:46.201Z,17.7
2023-03-25T13:24:43.419Z,17.6
2023-03-25T13:30:35.660Z,17.5
2023-03-25T13:36:13.501Z,17.4
2023-03-25T13:42:08.344Z,17.4
2023-03-25T13:47:45.012Z,17.3
2023-03-25T13:53:22.684Z,17.3
2023-03-25T13:59:15.658Z,17.2
2023-03-25T14:05:10.746Z,17.1
2023-03-25T14:11:03.159Z,17.1
2023-03-25T14:22:20.928Z,16.9
2023-03-25T14:27:57.353Z,16.9
2023-03-25T14:33:49.635Z,16.9
2023-03-25T14:39:26.483Z,16.8
2023-03-25T14:45:32.044Z,16.8
2023-03-25T14:51:23.057Z,16.8
2023-03-25T14:56:59.723Z,16.7
2023-03-25T15:02:55.475Z,16.7
2023-03-25T15:08:47.463Z,16.6
2023-03-25T15:14:23.569Z,16.6
2023-03-25T15:20:15.482Z,16.6
2023-03-25T15:26:07.205Z,16.6
2023-03-25T15:31:59.245Z,16.6
2023-03-25T15:38:02.575Z,16.5
2023-03-25T15:44:06.312Z,16.5
2023-03-25T15:49:58.727Z,16.4
2023-03-25T15:55:55.787Z,16.4
2023-03-25T16:01:46.957Z,16.4
2023-03-25T16:07:38.454Z,16.4
2023-03-25T16:13:30.116Z,16.4
2023-03-25T16:19:06.821Z,16.4
2023-03-25T16:24:42.592Z,16.4
2023-03-25T16:30:21.589Z,16.4
2023-03-25T16:36:00.011Z,16.3
2023-03-25T16:41:36.007Z,16.3
2023-03-25T16:47:12.710Z,16.3
2023-03-25T16:52:49.908Z,16.3
2023-03-25T16:58:41.210Z,16.3
2023-03-25T17:04:34.618Z,16.3
2023-03-25T17:10:26.378Z,16.3
2023-03-25T17:16:05.314Z,16.3
2023-03-25T17:21:42.813Z,16.3
2023-03-25T17:27:34.703Z,16.2
2023-03-25T17:33:27.002Z,16.2
2023-03-25T17:39:04.455Z,16.2
2023-03-25T17:44:56.852Z,16.2
2023-03-25T17:50:49.078Z,16.2
2023-03-25T17:56:40.576Z,16.2
2023-03-25T18:02:33.000Z,16.2
2023-03-25T18:08:24.280Z,16.1
2023-03-25T18:14:15.758Z,16.1
2023-03-25T18:19:52.353Z,16.1
2023-03-25T18:25:41.792Z,16.1
2023-03-25T18:31:47.907Z,16.1
2023-03-25T18:37:39.543Z,16.1
2023-03-25T18:43:15.418Z,16.1
2023-03-25T18:49:07.349Z,16.1
2023-03-25T18:54:42.760Z,16.1
2023-03-25T19:00:33.490Z,16.1
2023-03-25T19:06:39.958Z,16.1
2023-03-25T19:12:43.987Z,16.1
2023-03-25T19:18:43.643Z,16.1
2023-03-25T19:24:35.261Z,16.1
2023-03-25T19:30:26.595Z,16.1
2023-03-25T19:36:18.902Z,16
2023-03-25T19:41:56.342Z,16
2023-03-25T19:47:33.725Z,16
2023-03-25T19:53:24.433Z,16
2023-03-25T19:59:16.517Z,16
2023-03-25T20:04:53.837Z,16
2023-03-25T20:10:54.477Z,16
2023-03-25T20:16:31.190Z,15.9
2023-03-25T20:22:18.407Z,15.9
2023-03-25T20:27:42.718Z,15.9
2023-03-25T20:33:30.369Z,15.9
2023-03-25T20:39:31.154Z,15.9
2023-03-25T20:45:29.195Z,15.9
2023-03-25T20:51:21.305Z,15.9
2023-03-25T20:57:13.832Z,15.9
2023-03-25T21:02:50.476Z,15.9
2023-03-25T21:08:52.609Z,15.9
2023-03-25T21:14:56.161Z,15.9
2023-03-25T21:20:48.189Z,18.6
2023-03-25T21:26:27.489Z,22.6
2023-03-25T21:32:20.999Z,25.1
2023-03-25T21:38:06.918Z,22.2
2023-03-25T21:44:23.339Z,22.3
2023-03-25T21:50:15.328Z,22.3
2023-03-25T21:55:54.032Z,22.2
2023-03-25T22:01:15.708Z,22.1
2023-03-25T22:06:52.836Z,21.9
2023-03-25T22:12:43.521Z,21.8
2023-03-25T22:18:35.880Z,23.6
2023-03-25T22:24:29.375Z,24.1
2023-03-25T22:30:06.218Z,22.3
2023-03-25T22:35:58.003Z,22.4
2023-03-25T22:41:34.427Z,22.3
2023-03-25T22:47:26.531Z,22.2
2023-03-25T22:53:18.692Z,22
2023-03-25T22:59:11.604Z,21.8
2023-03-25T23:04:48.137Z,22
2023-03-25T23:10:34.776Z,23.8
2023-03-25T23:16:12.253Z,23.7
2023-03-25T23:21:49.212Z,22.8
2023-03-25T23:27:44.106Z,22.8
2023-03-25T23:33:36.034Z,22.6
2023-03-25T23:39:12.378Z,22.4
2023-03-25T23:45:05.136Z,22.3
2023-03-25T23:50:56.554Z,22
2023-03-25T23:56:01.497Z,22.6
